createdAt,value
2017-12-13T00:02:27.576Z,-1.30
2017-12-13T00:04:55.124Z,-1.40
2017-12-13T00:07:22.660Z,-1.40
2017-12-13T00:09:50.244Z,-1.40
2017-12-13T00:12:17.781Z,-1.30
2017-12-13T00:14:45.363Z,-1.30
2017-12-13T00:17:12.904Z,-1.30
2017-12-13T00:19:40.480Z,-1.20
2017-12-13T00:22:08.031Z,-1.20
2017-12-13T00:24:35.665Z,-1.30
2017-12-13T00:27:03.209Z,-1.30
2017-12-13T00:29:30.816Z,-1.30
2017-12-13T00:31:58.363Z,-1.30
2017-12-13T00:34:25.904Z,-1.40
2017-12-13T00:36:53.486Z,-1.20
2017-12-13T00:39:21.036Z,-1.20
2017-12-13T00:41:48.635Z,-1.20
2017-12-13T00:44:16.180Z,-1.20
2017-12-13T00:46:43.777Z,-1.10
2017-12-13T00:49:11.321Z,-1.10
2017-12-13T00:51:38.907Z,-1.00
2017-12-13T00:54:06.473Z,-0.90
2017-12-13T00:56:34.021Z,-0.90
2017-12-13T00:59:02.375Z,-0.90
2017-12-13T01:01:29.915Z,-0.90
2017-12-13T01:03:57.492Z,-0.80
2017-12-13T01:06:25.033Z,-0.70
2017-12-13T01:08:53.379Z,-0.50
2017-12-13T01:11:20.925Z,-0.60
2017-12-13T01:13:48.503Z,-0.40
2017-12-13T01:16:16.044Z,-0.40
2017-12-13T01:18:44.404Z,-0.40
2017-12-13T01:21:11.940Z,-0.40
2017-12-13T01:23:39.475Z,-0.40
2017-12-13T01:26:07.816Z,-0.10
2017-12-13T01:28:35.351Z,-0.10
2017-12-13T01:31:02.924Z,0.00
2017-12-13T01:33:30.475Z,-0.10
2017-12-13T01:35:58.811Z,-0.30
2017-12-13T01:38:26.363Z,-0.30
2017-12-13T01:40:53.930Z,-0.40
2017-12-13T01:43:22.232Z,-0.30
2017-12-13T01:45:49.836Z,-0.30
2017-12-13T01:48:17.372Z,-0.30
2017-12-13T01:50:44.907Z,-0.30
2017-12-13T01:53:12.483Z,-0.20
2017-12-13T01:55:40.024Z,-0.10
2017-12-13T01:58:07.605Z,-0.10
2017-12-13T02:00:35.214Z,-0.20
2017-12-13T02:03:03.558Z,-0.10
2017-12-13T02:05:31.100Z,-0.10
2017-12-13T02:07:58.698Z,0.00
2017-12-13T02:10:26.238Z,0.10
2017-12-13T02:12:53.780Z,0.00
2017-12-13T02:15:21.353Z,0.00
2017-12-13T02:17:48.888Z,0.20
2017-12-13T02:20:16.465Z,0.30
2017-12-13T02:22:44.008Z,0.20
2017-12-13T02:25:11.576Z,0.00
2017-12-13T02:27:39.111Z,-0.10
2017-12-13T02:30:06.689Z,-0.30
2017-12-13T02:32:34.242Z,-0.50
2017-12-13T02:35:01.820Z,-0.60
2017-12-13T02:37:29.370Z,-0.50
2017-12-13T02:40:08.833Z,-0.30
2017-12-13T02:42:36.378Z,-0.30
2017-12-13T02:45:03.969Z,-0.30
2017-12-13T02:47:48.393Z,-0.30
2017-12-13T02:50:16.757Z,-0.20
2017-12-13T02:52:44.316Z,-0.20
2017-12-13T02:55:11.861Z,-0.10
2017-12-13T02:57:39.444Z,-0.20
2017-12-13T03:00:06.993Z,-0.20
2017-12-13T03:02:34.582Z,-0.10
2017-12-13T03:05:02.121Z,0.00
2017-12-13T03:07:29.709Z,0.00
2017-12-13T03:09:57.253Z,0.20
2017-12-13T03:12:24.829Z,0.10
2017-12-13T03:14:52.377Z,0.10
2017-12-13T03:17:20.006Z,0.00
2017-12-13T03:19:48.312Z,-0.10
2017-12-13T03:22:15.861Z,-0.10
2017-12-13T03:24:43.448Z,-0.20
2017-12-13T03:27:10.997Z,-0.10
2017-12-13T03:29:39.349Z,-0.10
2017-12-13T03:32:06.893Z,-0.20
2017-12-13T03:34:34.487Z,-0.20
2017-12-13T03:37:02.041Z,-0.20
2017-12-13T03:39:29.622Z,-0.20
2017-12-13T03:41:57.178Z,-0.10
2017-12-13T03:44:24.756Z,-0.10
2017-12-13T03:46:52.302Z,0.00
2017-12-13T03:49:20.635Z,0.20
2017-12-13T03:51:48.175Z,0.20
2017-12-13T03:54:15.756Z,0.40
2017-12-13T03:56:43.368Z,0.40
2017-12-13T03:59:10.927Z,0.40
2017-12-13T04:01:38.500Z,0.50
2017-12-13T04:04:06.038Z,0.40
2017-12-13T04:06:33.621Z,0.40
2017-12-13T04:09:01.169Z,0.40
2017-12-13T04:11:29.520Z,0.30
2017-12-13T04:13:57.060Z,0.30
2017-12-13T04:16:24.637Z,0.30
2017-12-13T04:18:52.180Z,0.40
2017-12-13T04:21:19.764Z,0.50
2017-12-13T04:23:47.305Z,0.60
2017-12-13T04:26:15.604Z,0.70
2017-12-13T04:28:43.176Z,0.70
2017-12-13T04:31:11.486Z,1.00
2017-12-13T04:33:39.077Z,1.00
2017-12-13T04:36:06.620Z,1.20
2017-12-13T04:38:34.961Z,1.50
2017-12-13T04:41:02.514Z,1.50
2017-12-13T04:43:30.080Z,1.60
2017-12-13T04:45:57.618Z,1.70
2017-12-13T04:48:25.213Z,1.80
2017-12-13T04:50:52.749Z,1.90
2017-12-13T04:53:20.279Z,2.10
2017-12-13T04:55:47.856Z,2.20
2017-12-13T04:58:15.389Z,2.30
2017-12-13T05:00:43.730Z,2.40
2017-12-13T05:03:11.264Z,2.40
2017-12-13T05:05:38.844Z,2.30
2017-12-13T05:08:06.384Z,2.30
2017-12-13T05:10:34.724Z,2.20
2017-12-13T05:13:02.266Z,2.20
2017-12-13T05:15:29.855Z,2.10
2017-12-13T05:17:57.383Z,1.90
2017-12-13T05:20:24.974Z,1.80
2017-12-13T05:22:52.500Z,1.90
2017-12-13T05:25:20.038Z,2.00
2017-12-13T05:27:47.617Z,2.10
2017-12-13T05:30:15.160Z,2.00
2017-12-13T05:32:43.497Z,2.20
2017-12-13T05:35:11.046Z,2.20
2017-12-13T05:37:38.636Z,2.30
2017-12-13T05:40:06.292Z,2.40
2017-12-13T05:42:33.912Z,2.50
2017-12-13T05:45:01.445Z,2.40
2017-12-13T05:47:29.023Z,2.50
2017-12-13T05:49:56.566Z,2.50
2017-12-13T05:52:24.924Z,2.60
2017-12-13T05:54:52.461Z,2.50
2017-12-13T05:57:21.352Z,2.70
2017-12-13T05:59:48.931Z,2.70
2017-12-13T06:02:16.488Z,2.60
2017-12-13T06:04:44.069Z,2.50
2017-12-13T06:07:11.617Z,2.40
2017-12-13T06:09:39.960Z,2.20
2017-12-13T06:12:07.565Z,2.20
2017-12-13T06:14:35.157Z,2.30
2017-12-13T06:17:03.458Z,2.40
2017-12-13T06:19:31.049Z,2.40
2017-12-13T06:21:58.590Z,2.30
2017-12-13T06:24:26.892Z,2.30
2017-12-13T06:26:54.504Z,2.20
2017-12-13T06:29:22.807Z,2.10
2017-12-13T06:31:50.380Z,2.10
2017-12-13T06:34:17.921Z,2.40
2017-12-13T06:36:45.512Z,2.50
2017-12-13T06:39:13.052Z,2.60
2017-12-13T06:41:40.729Z,2.70
2017-12-13T06:44:08.270Z,2.70
2017-12-13T06:46:35.852Z,2.80
2017-12-13T06:49:03.391Z,2.90
2017-12-13T06:51:30.929Z,3.00
2017-12-13T06:53:58.518Z,3.10
2017-12-13T06:56:26.064Z,3.20
2017-12-13T06:58:53.658Z,3.20
2017-12-13T07:01:21.192Z,3.30
2017-12-13T07:03:48.769Z,3.30
2017-12-13T07:06:17.078Z,3.30
2017-12-13T07:08:44.653Z,3.20
2017-12-13T07:11:12.179Z,3.30
2017-12-13T07:13:39.753Z,3.40
2017-12-13T07:16:07.314Z,3.50
2017-12-13T07:18:34.912Z,3.70
2017-12-13T07:21:02.460Z,3.80
2017-12-13T07:23:30.050Z,3.80
2017-12-13T07:25:58.361Z,3.80
2017-12-13T07:28:25.999Z,3.80
2017-12-13T07:30:53.549Z,3.90
2017-12-13T07:33:21.092Z,4.00
2017-12-13T07:35:48.665Z,4.00
2017-12-13T07:38:16.198Z,3.90
2017-12-13T07:40:43.769Z,4.00
2017-12-13T07:43:11.301Z,4.00
2017-12-13T07:45:38.875Z,4.10
2017-12-13T07:48:06.417Z,4.20
2017-12-13T07:50:33.994Z,4.20
2017-12-13T07:53:01.528Z,4.20
2017-12-13T07:55:29.104Z,4.20
2017-12-13T07:57:56.649Z,4.20
2017-12-13T08:00:24.242Z,4.20
2017-12-13T08:02:51.800Z,4.30
2017-12-13T08:05:19.388Z,4.40
2017-12-13T08:07:46.961Z,4.50
2017-12-13T08:10:14.504Z,4.40
2017-12-13T08:12:42.119Z,4.40
2017-12-13T08:15:09.642Z,4.50
2017-12-13T08:17:37.228Z,4.60
2017-12-13T08:20:04.760Z,4.70
2017-12-13T08:22:32.336Z,4.70
2017-12-13T08:24:59.869Z,4.80
2017-12-13T08:27:27.454Z,4.80
2017-12-13T08:29:54.992Z,4.70
2017-12-13T08:32:22.573Z,4.80
2017-12-13T08:34:50.109Z,4.70
2017-12-13T08:37:17.727Z,4.80
2017-12-13T08:39:45.273Z,4.90
2017-12-13T08:42:12.844Z,4.80
2017-12-13T08:44:40.449Z,4.70
2017-12-13T08:47:07.985Z,4.70
2017-12-13T08:49:35.561Z,4.70
2017-12-13T08:52:03.105Z,4.80
2017-12-13T08:54:30.704Z,4.90
2017-12-13T08:56:58.246Z,4.80
2017-12-13T08:59:25.820Z,4.80
2017-12-13T09:01:53.556Z,4.70
2017-12-13T09:04:21.149Z,4.80
2017-12-13T09:06:49.458Z,4.80
2017-12-13T09:09:17.005Z,4.70
2017-12-13T09:11:44.581Z,4.70
2017-12-13T09:14:12.124Z,4.60
2017-12-13T09:16:39.701Z,4.60
2017-12-13T09:19:07.241Z,4.50
2017-12-13T09:21:34.816Z,4.50
2017-12-13T09:24:02.358Z,4.50
2017-12-13T09:26:30.696Z,4.50
2017-12-13T09:28:58.230Z,4.40
2017-12-13T09:31:25.818Z,4.50
2017-12-13T09:33:53.353Z,4.60
2017-12-13T09:36:20.933Z,4.60
2017-12-13T09:38:49.241Z,4.60
2017-12-13T09:41:16.832Z,4.50
2017-12-13T09:43:44.376Z,4.50
2017-12-13T09:46:12.674Z,4.50
2017-12-13T09:48:40.253Z,4.50
2017-12-13T09:51:07.788Z,4.40
2017-12-13T09:53:35.375Z,4.60
2017-12-13T09:56:03.677Z,4.70
2017-12-13T09:58:31.248Z,4.70
2017-12-13T10:00:59.545Z,4.80
2017-12-13T10:03:27.129Z,4.70
2017-12-13T10:05:54.664Z,4.80
2017-12-13T10:08:23.004Z,4.80
2017-12-13T10:10:50.533Z,4.70
2017-12-13T10:13:18.887Z,5.00
2017-12-13T10:15:46.422Z,5.00
2017-12-13T10:18:13.965Z,5.20
2017-12-13T10:20:42.315Z,5.30
2017-12-13T10:23:09.856Z,5.30
2017-12-13T10:25:37.444Z,5.30
2017-12-13T10:28:04.985Z,5.40
2017-12-13T10:30:32.564Z,5.40
2017-12-13T10:33:00.873Z,5.50
2017-12-13T10:35:28.461Z,5.40
2017-12-13T10:37:56.021Z,5.50
2017-12-13T10:40:23.556Z,5.60
2017-12-13T10:42:51.894Z,5.50
2017-12-13T10:45:19.470Z,5.50
2017-12-13T10:47:47.049Z,5.50
2017-12-13T10:50:14.583Z,5.50
2017-12-13T10:52:42.167Z,5.50
2017-12-13T10:55:09.698Z,5.60
2017-12-13T10:57:37.277Z,5.60
2017-12-13T11:00:04.844Z,5.60
2017-12-13T11:02:33.293Z,5.50
2017-12-13T11:05:00.841Z,5.60
2017-12-13T11:07:28.381Z,5.60
2017-12-13T11:09:55.953Z,5.70
2017-12-13T11:12:23.489Z,5.70
2017-12-13T11:14:51.077Z,5.60
2017-12-13T11:17:18.592Z,5.60
2017-12-13T11:19:46.892Z,5.60
2017-12-13T11:22:14.399Z,5.60
2017-12-13T11:24:41.938Z,5.60
2017-12-13T11:27:09.452Z,5.70
2017-12-13T11:29:36.991Z,5.70
2017-12-13T11:32:04.514Z,5.70
2017-12-13T11:34:32.053Z,5.70
2017-12-13T11:36:59.556Z,5.70
2017-12-13T11:39:27.122Z,5.70
2017-12-13T11:41:54.628Z,5.70
2017-12-13T11:44:22.148Z,5.70
2017-12-13T11:46:49.722Z,5.70
2017-12-13T11:49:17.229Z,5.70
2017-12-13T11:51:45.544Z,5.70
2017-12-13T11:57:13.083Z,5.70
2017-12-13T11:59:40.599Z,5.60
2017-12-13T12:02:08.161Z,5.60
2017-12-13T12:04:35.669Z,5.60
2017-12-13T12:07:03.220Z,5.60
2017-12-13T12:09:30.732Z,5.50
2017-12-13T12:11:59.203Z,5.50
2017-12-13T12:14:26.755Z,5.60
2017-12-13T12:16:55.032Z,5.70
2017-12-13T12:19:22.574Z,5.70
2017-12-13T12:21:50.088Z,5.70
2017-12-13T12:24:18.399Z,5.70
2017-12-13T12:26:45.932Z,5.70
2017-12-13T12:29:13.470Z,5.60
2017-12-13T12:31:41.004Z,5.60
2017-12-13T12:34:08.572Z,5.60
2017-12-13T12:36:36.843Z,5.70
2017-12-13T12:39:04.358Z,5.70
2017-12-13T12:41:31.896Z,5.70
2017-12-13T12:44:00.185Z,5.60
2017-12-13T12:46:28.489Z,5.60
2017-12-13T12:48:56.016Z,5.60
2017-12-13T12:51:23.553Z,5.60
2017-12-13T12:53:51.140Z,5.50
2017-12-13T12:56:18.689Z,5.50
2017-12-13T12:58:46.224Z,5.50
2017-12-13T13:01:13.784Z,5.40
2017-12-13T13:03:41.310Z,5.40
2017-12-13T13:06:08.816Z,5.50
2017-12-13T13:08:36.360Z,5.40
2017-12-13T13:11:03.881Z,5.50
2017-12-13T13:13:31.423Z,5.40
2017-12-13T13:15:58.935Z,5.30
2017-12-13T13:18:26.472Z,5.30
2017-12-13T13:20:53.981Z,5.40
2017-12-13T13:23:22.292Z,5.30
2017-12-13T13:25:49.814Z,5.20
2017-12-13T13:28:17.357Z,5.20
2017-12-13T13:30:44.864Z,5.20
2017-12-13T13:33:12.432Z,5.20
2017-12-13T13:35:39.948Z,5.20
2017-12-13T13:38:07.452Z,5.20
2017-12-13T13:40:34.994Z,5.20
2017-12-13T13:43:02.505Z,5.20
2017-12-13T13:45:30.060Z,5.20
2017-12-13T13:47:57.572Z,5.20
2017-12-13T13:50:25.113Z,5.10
2017-12-13T13:52:52.623Z,5.10
2017-12-13T13:55:20.162Z,5.00
2017-12-13T13:57:47.675Z,5.00
2017-12-13T14:00:15.976Z,4.90
2017-12-13T14:02:44.252Z,4.80
2017-12-13T14:05:11.808Z,4.80
2017-12-13T14:07:39.313Z,4.80
2017-12-13T14:10:07.580Z,4.80
2017-12-13T14:12:35.130Z,4.70
2017-12-13T14:15:02.640Z,4.70
2017-12-13T14:17:30.176Z,4.80
2017-12-13T14:19:57.692Z,4.80
2017-12-13T14:22:25.236Z,4.70
2017-12-13T14:24:52.744Z,4.70
2017-12-13T14:27:20.288Z,4.60
2017-12-13T14:29:48.073Z,4.70
2017-12-13T14:32:16.381Z,4.60
2017-12-13T14:34:43.911Z,4.50
2017-12-13T14:37:11.471Z,4.60
2017-12-13T14:39:38.977Z,4.60
2017-12-13T14:42:06.484Z,4.60
2017-12-13T14:44:34.031Z,4.60
2017-12-13T14:47:02.308Z,4.60
2017-12-13T14:49:30.651Z,4.50
2017-12-13T14:51:58.151Z,4.50
2017-12-13T14:54:25.691Z,4.50
2017-12-13T14:56:53.205Z,4.50
2017-12-13T14:59:20.760Z,4.50
2017-12-13T15:01:49.240Z,4.50
2017-12-13T15:04:16.796Z,4.50
2017-12-13T15:06:44.301Z,4.50
2017-12-13T15:09:11.817Z,4.50
2017-12-13T15:11:39.360Z,4.60
2017-12-13T15:14:06.868Z,4.50
2017-12-13T15:16:34.408Z,4.50
2017-12-13T15:19:01.922Z,4.50
2017-12-13T15:21:29.460Z,4.50
2017-12-13T15:23:57.746Z,4.50
2017-12-13T15:26:26.048Z,4.60
2017-12-13T15:28:54.331Z,4.60
2017-12-13T15:31:22.632Z,4.60
2017-12-13T15:33:50.144Z,4.60
2017-12-13T15:36:17.702Z,4.60
2017-12-13T15:38:45.235Z,4.60
2017-12-13T15:41:12.758Z,4.60
2017-12-13T15:43:40.299Z,4.60
2017-12-13T15:46:08.382Z,4.60
2017-12-13T15:48:35.928Z,4.60
2017-12-13T15:51:04.224Z,4.60
2017-12-13T15:53:31.776Z,4.50
2017-12-13T15:55:59.290Z,4.60
2017-12-13T15:58:26.833Z,4.60
2017-12-13T16:00:55.104Z,4.50
2017-12-13T16:03:23.448Z,4.50
2017-12-13T16:05:50.960Z,4.50
2017-12-13T16:08:18.468Z,4.50
2017-12-13T16:10:46.773Z,4.50
2017-12-13T16:13:14.280Z,4.50
2017-12-13T16:15:41.848Z,4.50
2017-12-13T16:18:09.352Z,4.50
2017-12-13T16:20:36.889Z,4.40
2017-12-13T16:23:04.395Z,4.40
2017-12-13T16:25:31.936Z,4.40
2017-12-13T16:27:59.439Z,4.40
2017-12-13T16:30:26.996Z,4.40
2017-12-13T16:32:54.522Z,4.40
2017-12-13T16:35:22.064Z,4.40
2017-12-13T16:37:49.613Z,4.40
2017-12-13T16:40:17.137Z,4.50
2017-12-13T16:42:44.676Z,4.50
2017-12-13T16:45:12.194Z,4.50
2017-12-13T16:47:39.752Z,4.50
2017-12-13T16:50:07.279Z,4.50
2017-12-13T16:52:34.839Z,4.50
2017-12-13T16:55:02.347Z,4.60
2017-12-13T16:57:30.617Z,4.70
2017-12-13T16:59:58.156Z,4.70
2017-12-13T17:02:25.683Z,4.70
2017-12-13T17:04:53.996Z,4.80
2017-12-13T17:07:21.496Z,4.70
2017-12-13T17:09:49.044Z,4.70
2017-12-13T17:12:16.545Z,4.70
2017-12-13T17:14:44.103Z,4.60
2017-12-13T17:17:11.612Z,4.60
2017-12-13T17:19:39.153Z,4.60
2017-12-13T17:22:07.583Z,4.60
2017-12-13T17:24:35.132Z,4.60
2017-12-13T17:27:02.643Z,4.70
2017-12-13T17:29:30.916Z,4.70
2017-12-13T17:31:59.237Z,4.70
2017-12-13T17:34:26.778Z,4.60
2017-12-13T17:36:55.089Z,4.80
2017-12-13T17:39:23.432Z,4.70
2017-12-13T17:41:51.000Z,4.70
2017-12-13T17:44:18.508Z,4.80
2017-12-13T17:46:46.058Z,4.80
2017-12-13T17:49:13.568Z,4.80
2017-12-13T17:51:41.123Z,4.90
2017-12-13T17:54:08.641Z,5.00
2017-12-13T17:56:36.195Z,5.10
2017-12-13T17:59:03.713Z,5.10
2017-12-13T18:01:31.300Z,5.10
2017-12-13T18:03:58.804Z,5.20
2017-12-13T18:06:26.322Z,5.20
2017-12-13T18:08:53.900Z,5.10
2017-12-13T18:11:21.420Z,5.20
2017-12-13T18:13:48.976Z,5.10
2017-12-13T18:16:16.480Z,5.20
2017-12-13T18:18:44.036Z,5.20
2017-12-13T18:21:12.353Z,5.20
2017-12-13T18:23:39.919Z,5.10
2017-12-13T18:26:08.318Z,5.20
2017-12-13T18:28:35.833Z,5.20
2017-12-13T18:31:03.388Z,5.20
2017-12-13T18:33:30.949Z,5.20
2017-12-13T18:35:58.495Z,5.30
2017-12-13T18:38:25.999Z,5.30
2017-12-13T18:40:53.566Z,5.40
2017-12-13T18:43:21.577Z,5.40
2017-12-13T18:45:49.900Z,5.60
2017-12-13T18:48:17.416Z,5.60
2017-12-13T18:50:45.744Z,5.50
2017-12-13T18:53:14.074Z,5.60
2017-12-13T18:55:41.628Z,5.60
2017-12-13T18:58:09.196Z,5.60
2017-12-13T19:00:36.712Z,5.70
2017-12-13T19:03:04.276Z,5.80
2017-12-13T19:05:31.889Z,5.80
2017-12-13T19:08:00.204Z,5.80
2017-12-13T19:10:27.709Z,5.80
2017-12-13T19:12:55.469Z,5.90
2017-12-13T19:15:22.986Z,5.90
2017-12-13T19:17:50.489Z,6.00
2017-12-13T19:20:18.057Z,6.10
2017-12-13T19:22:46.340Z,6.20
2017-12-13T19:25:15.449Z,6.10
2017-12-13T19:27:44.221Z,6.10
2017-12-13T19:30:11.785Z,6.10
2017-12-13T19:32:39.310Z,6.20
2017-12-13T19:35:06.884Z,6.30
2017-12-13T19:37:34.393Z,6.30
2017-12-13T19:40:01.980Z,6.30
2017-12-13T19:42:29.503Z,6.40
2017-12-13T19:44:57.057Z,6.40
2017-12-13T19:47:25.384Z,6.60
2017-12-13T19:49:52.984Z,6.50
2017-12-13T19:52:20.492Z,6.60
2017-12-13T19:54:48.860Z,6.70
2017-12-13T19:57:17.188Z,6.70
2017-12-13T19:59:44.700Z,6.60
2017-12-13T20:02:12.256Z,6.60
2017-12-13T20:04:39.761Z,6.60
2017-12-13T20:07:07.308Z,6.70
2017-12-13T20:09:34.839Z,6.80
2017-12-13T20:12:02.437Z,6.80
2017-12-13T20:14:29.952Z,6.70
2017-12-13T20:16:57.468Z,6.60
2017-12-13T20:19:25.028Z,6.50
2017-12-13T20:21:52.540Z,6.40
2017-12-13T20:24:20.096Z,6.40
2017-12-13T20:26:47.612Z,6.30
2017-12-13T20:29:15.908Z,6.20
2017-12-13T20:31:43.416Z,6.20
2017-12-13T20:34:10.981Z,6.20
2017-12-13T20:36:38.505Z,6.20
2017-12-13T20:39:06.070Z,6.20
2017-12-13T20:41:33.604Z,6.20
2017-12-13T20:44:02.021Z,6.20
2017-12-13T20:46:29.615Z,6.20
2017-12-13T20:48:57.186Z,6.00
2017-12-13T20:51:25.654Z,6.10
2017-12-13T20:53:53.152Z,6.00
2017-12-13T20:56:20.709Z,6.00
2017-12-13T20:58:48.219Z,6.00
2017-12-13T21:01:16.540Z,6.20
2017-12-13T21:03:44.066Z,6.20
2017-12-13T21:06:12.403Z,6.20
2017-12-13T21:08:39.916Z,6.20
2017-12-13T21:11:07.489Z,6.20
2017-12-13T21:13:34.997Z,6.30
2017-12-13T21:16:02.563Z,6.30
2017-12-13T21:18:30.157Z,6.30
2017-12-13T21:20:57.659Z,6.20
2017-12-13T21:23:25.209Z,6.20
2017-12-13T21:25:52.725Z,6.10
2017-12-13T21:28:20.272Z,6.10
2017-12-13T21:30:47.774Z,6.20
2017-12-13T21:33:15.327Z,6.20
2017-12-13T21:35:42.840Z,6.10
2017-12-13T21:38:11.157Z,6.00
2017-12-13T21:40:38.666Z,6.00
2017-12-13T21:43:06.232Z,5.90
2017-12-13T21:45:33.743Z,5.80
2017-12-13T21:48:01.261Z,5.80
2017-12-13T21:50:28.808Z,5.70
2017-12-13T21:52:56.312Z,5.80
2017-12-13T21:55:23.864Z,5.80
2017-12-13T21:57:51.377Z,5.70
2017-12-13T22:00:18.944Z,5.70
2017-12-13T22:02:46.449Z,5.60
2017-12-13T22:05:14.765Z,5.70
2017-12-13T22:07:42.291Z,5.70
2017-12-13T22:10:09.839Z,5.60
2017-12-13T22:12:37.442Z,5.60
2017-12-13T22:15:04.991Z,5.60
2017-12-13T22:17:32.492Z,5.60
2017-12-13T22:20:00.053Z,5.60
2017-12-13T22:22:27.569Z,5.60
2017-12-13T22:24:55.072Z,5.50
2017-12-13T22:27:22.613Z,5.50
2017-12-13T22:29:50.122Z,5.60
2017-12-13T22:32:17.664Z,5.60
2017-12-13T22:34:45.231Z,5.60
2017-12-13T22:37:12.781Z,5.50
2017-12-13T22:39:41.056Z,5.30
2017-12-13T22:42:08.589Z,5.30
2017-12-13T22:44:36.101Z,5.20
2017-12-13T22:47:03.645Z,5.00
2017-12-13T22:49:31.152Z,5.00
2017-12-13T22:51:59.475Z,5.00
2017-12-13T22:54:26.976Z,5.00
2017-12-13T22:56:54.493Z,5.00
2017-12-13T22:59:22.808Z,4.90
2017-12-13T23:01:50.324Z,4.90
2017-12-13T23:04:17.867Z,5.00
2017-12-13T23:06:45.380Z,5.10
2017-12-13T23:09:12.917Z,5.20
2017-12-13T23:11:40.424Z,5.40
2017-12-13T23:14:07.972Z,5.50
2017-12-13T23:16:35.496Z,5.60
2017-12-13T23:19:03.037Z,5.70
2017-12-13T23:21:30.547Z,5.70
2017-12-13T23:23:58.096Z,5.70
2017-12-13T23:26:26.368Z,5.80
2017-12-13T23:28:53.892Z,5.80
2017-12-13T23:31:21.472Z,5.90
2017-12-13T23:33:48.976Z,5.90
2017-12-13T23:36:16.523Z,5.90
2017-12-13T23:38:44.037Z,5.90
2017-12-13T23:41:12.356Z,6.00
2017-12-13T23:43:39.864Z,5.90
2017-12-13T23:46:07.408Z,5.80
2017-12-13T23:48:34.916Z,5.70
2017-12-13T23:51:02.465Z,5.60
2017-12-13T23:53:29.976Z,5.70
2017-12-13T23:55:57.492Z,5.80
2017-12-13T23:58:25.042Z,5.90
